Time;durP1;ratioP1;P1;durP2;ratioP2;P2;SDS_P1;SDS_P2;PMS_P1;PMS_P2;Temp;Humidity;BMP_temperature;BMP_pressure;BME280_temperature;BME280_humidity;BME280_pressure;Samples;Min_cycle;Max_cycle;Signal;HPM_P1;HPM_P2
2021/04/19 00:00:40;;;;;;;13.32;6.20;;;9.80;71.30;;;;;;5095838;28;20020;-75
2021/04/19 00:03:06;;;;;;;13.13;6.38;;;9.70;71.40;;;;;;5095204;28;20360;-75
2021/04/19 00:05:32;;;;;;;9.07;5.95;;;9.70;71.40;;;;;;5113857;28;20035;-74
2021/04/19 00:07:57;;;;;;;13.55;5.88;;;9.60;71.50;;;;;;5096460;28;20023;-75
2021/04/19 00:10:24;;;;;;;13.10;6.60;;;9.70;71.50;;;;;;5095500;28;20134;-75
2021/04/19 00:12:50;;;;;;;11.60;6.18;;;9.60;71.50;;;;;;5095872;28;20453;-74
2021/04/19 00:15:17;;;;;;;11.75;5.75;;;9.60;71.70;;;;;;5113664;28;20368;-74
2021/04/19 00:17:43;;;;;;;11.45;5.95;;;9.60;71.60;;;;;;5095687;28;20027;-75
2021/04/19 00:20:10;;;;;;;10.48;6.15;;;9.60;71.50;;;;;;5095916;28;20058;-75
2021/04/19 00:22:36;;;;;;;10.75;6.03;;;9.60;71.50;;;;;;5095625;28;20023;-75
2021/04/19 00:25:03;;;;;;;10.50;6.10;;;9.60;71.40;;;;;;5114003;28;20027;-75
2021/04/19 00:27:29;;;;;;;11.13;6.10;;;9.60;71.40;;;;;;5095621;28;20023;-75
2021/04/19 00:29:54;;;;;;;12.93;6.50;;;9.70;71.60;;;;;;5113938;28;20464;-75
2021/04/19 00:32:20;;;;;;;11.65;6.07;;;9.60;71.60;;;;;;5112868;28;20027;-75
2021/04/19 00:34:46;;;;;;;11.20;6.32;;;9.50;71.90;;;;;;5095385;28;20011;-75
2021/04/19 00:37:12;;;;;;;10.88;5.68;;;9.50;71.90;;;;;;5095756;28;20131;-75
2021/04/19 00:39:38;;;;;;;11.23;6.10;;;9.50;72.00;;;;;;5113379;28;20063;-74
2021/04/19 00:42:04;;;;;;;12.88;6.40;;;9.50;71.90;;;;;;5095828;28;20019;-74
2021/04/19 00:44:31;;;;;;;10.93;5.93;;;9.50;71.70;;;;;;5113451;28;20020;-74
2021/04/19 00:46:56;;;;;;;12.35;5.45;;;9.60;71.90;;;;;;5095872;28;20035;-74
2021/04/19 00:49:24;;;;;;;8.75;5.60;;;9.50;71.70;;;;;;5112551;28;20027;-74
2021/04/19 00:51:51;;;;;;;10.52;6.03;;;9.50;71.80;;;;;;5095415;28;20384;-74
2021/04/19 00:54:17;;;;;;;12.27;5.97;;;9.50;71.90;;;;;;5094747;28;20023;-77
2021/04/19 00:56:43;;;;;;;12.13;6.13;;;9.50;72.00;;;;;;5095461;28;20082;-75
2021/04/19 00:59:09;;;;;;;15.98;6.80;;;9.50;71.90;;;;;;5095129;28;20364;-75
2021/04/19 01:01:34;;;;;;;15.50;6.78;;;9.50;72.00;;;;;;5094848;28;20020;-74
2021/04/19 01:04:00;;;;;;;11.60;5.88;;;9.50;71.90;;;;;;5095321;28;20038;-75
2021/04/19 01:06:26;;;;;;;11.32;6.00;;;9.40;72.00;;;;;;5112817;28;20023;-75
2021/04/19 01:08:52;;;;;;;10.68;5.65;;;9.40;72.00;;;;;;5094882;28;20020;-75
2021/04/19 01:11:17;;;;;;;15.25;6.47;;;9.40;72.10;;;;;;5094410;28;20383;-79
2021/04/19 01:13:43;;;;;;;12.45;6.45;;;9.50;72.00;;;;;;5095615;28;20023;-75
2021/04/19 01:16:09;;;;;;;10.05;5.97;;;9.40;72.10;;;;;;5096032;28;20353;-75
2021/04/19 01:18:35;;;;;;;13.25;6.22;;;9.50;72.60;;;;;;5094841;28;20031;-75
2021/04/19 01:21:00;;;;;;;11.95;6.57;;;9.50;72.00;;;;;;5113532;28;20023;-76
2021/04/19 01:23:26;;;;;;;12.88;6.72;;;9.40;72.20;;;;;;5095292;28;20486;-75
2021/04/19 01:25:53;;;;;;;11.40;6.60;;;9.40;72.20;;;;;;5094901;28;20035;-76
2021/04/19 01:28:21;;;;;;;13.52;6.72;;;9.40;72.30;;;;;;5094890;28;20027;-76
2021/04/19 01:30:49;;;;;;;13.73;6.97;;;9.40;72.50;;;;;;5095107;28;20030;-75
2021/04/19 01:33:15;;;;;;;11.82;6.85;;;9.40;72.40;;;;;;5094643;28;20020;-76
2021/04/19 01:35:42;;;;;;;10.18;5.72;;;9.40;72.20;;;;;;5094269;28;20122;-75
2021/04/19 01:38:09;;;;;;;13.20;6.45;;;9.40;72.30;;;;;;5094091;28;20078;-75
2021/04/19 01:40:35;;;;;;;14.60;7.13;;;9.40;72.20;;;;;;5112281;28;20106;-75
2021/04/19 01:43:01;;;;;;;11.43;6.53;;;9.40;72.40;;;;;;5112686;28;20507;-75
2021/04/19 01:45:26;;;;;;;11.48;6.07;;;9.40;72.30;;;;;;5112776;28;20027;-76
2021/04/19 01:47:54;;;;;;;12.45;6.18;;;9.40;72.10;;;;;;5094812;28;20558;-75
2021/04/19 01:50:28;;;;;;;12.98;6.32;;;9.40;72.00;;;;;;5093955;28;20173;-84
2021/04/19 01:52:56;;;;;;;14.55;6.68;;;9.40;71.70;;;;;;5113003;28;20052;-75
2021/04/19 01:55:24;;;;;;;11.25;6.15;;;9.40;71.60;;;;;;5094256;28;20035;-76
2021/04/19 01:58:00;;;;;;;14.00;6.40;;;9.40;71.60;;;;;;5094526;28;20111;-76
2021/04/19 02:00:28;;;;;;;14.02;6.45;;;9.40;71.50;;;;;;5094109;28;20414;-76
2021/04/19 02:03:18;;;;;;;10.50;5.65;;;9.40;71.30;;;;;;5094623;28;20023;-75
2021/04/19 02:05:55;;;;;;;12.20;5.97;;;9.40;71.40;;;;;;5094289;28;20037;-74
2021/04/19 02:08:38;;;;;;;11.75;5.82;;;9.40;71.30;;;;;;5112346;28;20027;-81
2021/04/19 02:11:22;;;;;;;12.57;5.88;;;9.40;71.30;;;;;;5094447;28;20032;-75
2021/04/19 02:14:26;;;;;;;17.40;6.20;;;9.40;71.30;;;;;;5112581;28;20018;-74
2021/04/19 02:17:16;;;;;;;13.45;6.03;;;9.40;71.40;;;;;;5112451;28;20043;-74
2021/04/19 02:19:49;;;;;;;13.00;6.38;;;9.40;71.40;;;;;;5093751;28;20461;-74
2021/04/19 02:22:37;;;;;;;12.13;5.97;;;9.40;71.50;;;;;;5094854;28;20026;-74
2021/04/19 02:25:19;;;;;;;10.55;5.45;;;9.40;71.60;;;;;;5116042;28;20096;-74
2021/04/19 02:27:58;;;;;;;13.55;6.85;;;9.30;71.50;;;;;;5116071;28;20030;-74
2021/04/19 02:30:32;;;;;;;11.48;5.68;;;9.40;71.80;;;;;;5097810;28;20080;-75
2021/04/19 02:32:59;;;;;;;13.23;6.57;;;9.40;72.00;;;;;;5098349;28;20403;-74
2021/04/19 02:35:26;;;;;;;10.68;5.60;;;9.40;72.10;;;;;;5097294;28;20019;-75
2021/04/19 02:37:57;;;;;;;12.85;6.10;;;9.40;72.10;;;;;;5098162;28;20024;-74
2021/04/19 02:40:24;;;;;;;13.13;6.00;;;9.40;72.40;;;;;;5115899;28;20106;-83
2021/04/19 02:42:51;;;;;;;13.88;6.30;;;9.40;72.80;;;;;;5097954;28;20048;-75
2021/04/19 02:45:21;;;;;;;13.23;6.65;;;9.40;73.10;;;;;;5098084;28;20023;-75
2021/04/19 02:47:47;;;;;;;11.82;6.38;;;9.40;73.40;;;;;;5097303;28;20028;-75
2021/04/19 02:50:24;;;;;;;12.00;6.28;;;9.40;73.80;;;;;;5115701;28;20034;-74
2021/04/19 02:52:51;;;;;;;11.95;6.35;;;9.40;73.80;;;;;;5077798;28;20036;-74
2021/04/19 02:55:20;;;;;;;14.45;6.50;;;9.40;73.70;;;;;;5095672;28;20039;-75
2021/04/19 02:57:52;;;;;;;18.73;7.47;;;9.40;73.80;;;;;;5076834;28;20399;-76
2021/04/19 03:00:21;;;;;;;13.18;6.45;;;9.40;73.70;;;;;;5074778;28;20458;-75
2021/04/19 03:02:48;;;;;;;11.50;6.32;;;9.30;73.90;;;;;;5094903;28;20020;-75
2021/04/19 03:05:15;;;;;;;14.32;6.38;;;9.40;74.60;;;;;;5095186;28;20099;-75
2021/04/19 03:07:49;;;;;;;15.05;6.45;;;9.30;74.80;;;;;;5075899;28;20412;-75
2021/04/19 03:10:18;;;;;;;15.75;6.78;;;9.40;74.70;;;;;;5076872;28;20024;-76
2021/04/19 03:12:49;;;;;;;11.90;6.28;;;9.40;74.30;;;;;;5095131;28;20039;-75
2021/04/19 03:15:21;;;;;;;11.23;5.80;;;9.40;74.30;;;;;;5077150;28;20469;-75
2021/04/19 03:17:48;;;;;;;16.98;6.70;;;9.40;74.00;;;;;;5076145;28;20238;-75
2021/04/19 03:20:21;;;;;;;11.35;6.53;;;9.30;73.80;;;;;;5075753;28;20476;-76
2021/04/19 03:22:48;;;;;;;13.93;6.32;;;9.30;74.10;;;;;;5094083;28;20219;-76
2021/04/19 03:25:14;;;;;;;13.45;6.57;;;9.40;74.00;;;;;;5094847;28;20047;-76
2021/04/19 03:27:42;;;;;;;13.07;6.70;;;9.30;74.30;;;;;;5076425;28;20524;-76
2021/04/19 03:30:09;;;;;;;11.43;6.55;;;9.30;74.30;;;;;;5088626;28;20107;-75
2021/04/19 03:32:49;;;;;;;11.88;5.95;;;9.30;74.50;;;;;;5076476;28;20070;-76
2021/04/19 03:35:18;;;;;;;10.43;5.95;;;9.30;74.40;;;;;;5075195;28;20034;-76
2021/04/19 03:37:46;;;;;;;10.25;5.63;;;9.30;74.20;;;;;;5076407;28;20069;-74
2021/04/19 03:40:34;;;;;;;11.05;6.13;;;9.30;74.30;;;;;;5076432;28;20053;-75
2021/04/19 03:43:06;;;;;;;12.30;6.10;;;9.20;74.60;;;;;;5076768;28;20059;-75
2021/04/19 03:45:34;;;;;;;11.80;5.88;;;9.20;74.70;;;;;;5094156;28;20036;-75
2021/04/19 03:48:03;;;;;;;13.57;6.03;;;9.20;74.90;;;;;;5076587;28;20036;-75
2021/04/19 03:50:32;;;;;;;15.82;6.57;;;9.10;75.00;;;;;;5094026;28;20052;-75
2021/04/19 03:53:00;;;;;;;14.10;6.20;;;9.10;75.10;;;;;;5094002;28;20064;-75
2021/04/19 03:55:27;;;;;;;10.70;5.93;;;9.10;75.20;;;;;;5075968;28;20097;-75
2021/04/19 03:57:54;;;;;;;17.10;6.45;;;9.10;75.60;;;;;;5075426;28;20553;-75
2021/04/19 04:00:22;;;;;;;10.57;6.03;;;9.10;76.10;;;;;;5075727;28;20093;-75
2021/04/19 04:02:52;;;;;;;13.45;6.47;;;9.10;76.40;;;;;;5075230;28;20020;-75
2021/04/19 04:05:19;;;;;;;11.13;6.38;;;9.10;76.30;;;;;;5073439;28;20405;-75
2021/04/19 04:07:46;;;;;;;13.05;6.35;;;9.10;76.60;;;;;;5075400;28;20024;-75
2021/04/19 04:10:12;;;;;;;12.40;6.55;;;9.10;76.80;;;;;;5072082;28;20037;-75
2021/04/19 04:12:37;;;;;;;13.00;6.97;;;9.10;76.70;;;;;;5066918;28;20024;-76
2021/04/19 04:15:05;;;;;;;11.45;6.28;;;9.00;77.40;;;;;;5055493;28;20385;-76
2021/04/19 04:17:30;;;;;;;16.38;7.72;;;9.00;77.50;;;;;;5061688;28;20038;-80
2021/04/19 04:19:56;;;;;;;13.90;7.47;;;9.10;77.10;;;;;;5074095;28;20036;-75
2021/04/19 04:22:23;;;;;;;15.48;7.10;;;9.10;77.20;;;;;;5092960;28;20024;-75
2021/04/19 04:24:49;;;;;;;18.77;8.05;;;9.10;77.40;;;;;;5071420;28;20033;-75
2021/04/19 04:27:15;;;;;;;17.42;7.15;;;9.10;77.30;;;;;;5072264;28;20028;-76
2021/04/19 04:29:41;;;;;;;14.65;7.47;;;9.10;77.50;;;;;;5072138;28;20036;-76
2021/04/19 04:32:07;;;;;;;15.80;7.15;;;9.10;77.20;;;;;;5073851;28;20103;-76
2021/04/19 04:34:33;;;;;;;17.08;7.70;;;9.10;77.60;;;;;;5072668;28;20035;-80
2021/04/19 04:36:59;;;;;;;13.88;7.53;;;9.10;77.70;;;;;;5073709;28;20028;-76
2021/04/19 04:39:25;;;;;;;15.15;7.75;;;9.00;77.80;;;;;;5079036;28;20527;-75
2021/04/19 04:41:50;;;;;;;15.52;7.55;;;9.10;78.00;;;;;;5074884;28;20024;-75
2021/04/19 04:44:35;;;;;;;14.02;7.10;;;9.00;77.90;;;;;;5071683;28;20052;-75
2021/04/19 04:47:31;;;;;;;13.80;7.75;;;9.10;78.20;;;;;;5073007;28;20025;-75
2021/04/19 04:50:08;;;;;;;12.70;7.28;;;9.10;78.40;;;;;;5066622;28;20423;-75
2021/04/19 04:52:54;;;;;;;11.45;6.40;;;9.00;78.50;;;;;;5074781;28;20051;-79
2021/04/19 04:55:23;;;;;;;16.98;7.35;;;9.00;78.70;;;;;;5072693;28;20039;-75
2021/04/19 04:57:50;;;;;;;14.15;7.68;;;9.00;79.20;;;;;;5092686;28;20031;-75
2021/04/19 05:00:19;;;;;;;17.45;7.85;;;9.00;78.70;;;;;;5074720;28;20366;-75
2021/04/19 05:02:48;;;;;;;21.17;8.43;;;8.90;78.60;;;;;;5074334;28;20035;-75
2021/04/19 05:05:15;;;;;;;15.90;8.15;;;9.00;78.70;;;;;;5093269;28;20059;-75
2021/04/19 05:07:41;;;;;;;18.20;7.75;;;9.00;78.90;;;;;;5091800;28;20056;-76
2021/04/19 05:10:08;;;;;;;12.70;7.22;;;9.00;78.90;;;;;;5074832;28;20544;-75
2021/04/19 05:12:34;;;;;;;15.80;8.27;;;8.90;79.00;;;;;;5074230;28;20518;-77
2021/04/19 05:15:06;;;;;;;16.58;8.43;;;8.90;79.10;;;;;;5074841;28;20024;-76
2021/04/19 05:17:32;;;;;;;15.60;8.48;;;8.90;79.00;;;;;;5093063;28;20036;-83
2021/04/19 05:19:57;;;;;;;16.17;8.70;;;8.90;79.00;;;;;;5075039;28;20024;-77
2021/04/19 05:22:23;;;;;;;21.45;9.55;;;8.90;79.00;;;;;;5074676;28;20035;-77
2021/04/19 05:24:50;;;;;;;16.38;8.40;;;8.90;79.40;;;;;;5074586;28;20024;-75
2021/04/19 05:27:16;;;;;;;20.95;9.65;;;9.00;79.60;;;;;;5074450;28;20082;-76
2021/04/19 05:29:41;;;;;;;17.73;9.65;;;8.90;79.80;;;;;;5074452;28;20028;-76
2021/04/19 05:32:09;;;;;;;19.27;9.50;;;8.90;79.90;;;;;;5074612;28;20031;-76
2021/04/19 05:34:36;;;;;;;17.90;9.10;;;9.00;80.00;;;;;;5074598;28;20024;-76
2021/04/19 05:37:03;;;;;;;17.40;9.65;;;9.00;80.20;;;;;;5074500;28;20124;-76
2021/04/19 05:39:31;;;;;;;18.02;8.80;;;9.00;79.60;;;;;;5074818;28;20020;-76
2021/04/19 05:41:57;;;;;;;19.23;9.75;;;9.00;79.50;;;;;;5091987;28;20024;-75
2021/04/19 05:44:25;;;;;;;21.00;9.65;;;9.00;79.30;;;;;;5074574;28;20073;-75
2021/04/19 05:46:51;;;;;;;16.33;9.07;;;9.00;79.40;;;;;;5073822;28;20051;-75
2021/04/19 05:49:17;;;;;;;21.48;10.23;;;9.00;79.70;;;;;;5074062;28;20032;-75
2021/04/19 05:51:44;;;;;;;21.33;9.27;;;9.00;79.40;;;;;;5080198;28;20097;-76
2021/04/19 05:54:13;;;;;;;15.40;9.02;;;9.00;79.20;;;;;;5091374;28;20095;-76
2021/04/19 05:56:56;;;;;;;17.33;8.70;;;9.00;79.30;;;;;;5090680;28;20030;-76
2021/04/19 05:59:43;;;;;;;20.27;9.05;;;9.00;79.40;;;;;;5094651;28;20035;-75
2021/04/19 06:02:11;;;;;;;17.35;9.40;;;9.00;79.20;;;;;;5095297;28;20035;-76
2021/04/19 06:04:51;;;;;;;19.55;9.95;;;9.00;79.30;;;;;;5094996;28;20026;-75
2021/04/19 06:07:27;;;;;;;19.75;9.95;;;8.90;79.70;;;;;;5095046;28;20522;-76
2021/04/19 06:09:54;;;;;;;22.58;9.40;;;8.90;79.80;;;;;;5094206;28;20073;-76
2021/04/19 06:12:24;;;;;;;21.75;9.95;;;9.00;79.60;;;;;;5096916;28;20103;-79
2021/04/19 06:14:52;;;;;;;21.27;9.45;;;9.00;79.20;;;;;;5093002;28;20043;-78
2021/04/19 06:17:20;;;;;;;22.63;9.48;;;9.10;79.10;;;;;;5094081;28;20039;-78
2021/04/19 06:19:46;;;;;;;18.70;9.43;;;9.00;79.20;;;;;;5094053;28;20094;-77
2021/04/19 06:22:16;;;;;;;21.05;9.20;;;9.10;79.50;;;;;;5094983;28;20024;-78
2021/04/19 06:24:50;;;;;;;18.42;8.85;;;9.10;79.40;;;;;;5094012;28;20045;-78
2021/04/19 06:27:26;;;;;;;20.63;9.68;;;9.00;79.90;;;;;;5095206;28;20050;-79
2021/04/19 06:29:53;;;;;;;15.65;8.23;;;9.00;80.30;;;;;;5081066;28;20081;-77
2021/04/19 06:32:23;;;;;;;20.77;9.23;;;9.00;80.20;;;;;;5095881;28;20027;-75
2021/04/19 06:34:50;;;;;;;19.17;8.95;;;9.00;80.00;;;;;;5095958;28;20103;-74
2021/04/19 06:37:17;;;;;;;19.73;8.18;;;9.10;79.50;;;;;;5094772;28;20385;-75
2021/04/19 06:39:44;;;;;;;15.13;8.57;;;9.10;79.30;;;;;;5093529;28;20043;-76
2021/04/19 06:42:11;;;;;;;17.85;7.97;;;9.10;79.60;;;;;;5094394;28;20107;-76
2021/04/19 06:44:37;;;;;;;19.05;9.45;;;9.10;79.90;;;;;;5093992;28;20026;-79
2021/04/19 06:47:03;;;;;;;15.38;8.18;;;9.10;79.90;;;;;;5094459;28;20024;-75
2021/04/19 06:49:28;;;;;;;16.50;8.25;;;9.10;79.70;;;;;;5095913;28;20032;-77
2021/04/19 06:51:56;;;;;;;15.20;7.13;;;9.10;79.60;;;;;;5085604;28;20044;-77
2021/04/19 06:54:22;;;;;;;16.33;7.63;;;9.10;79.60;;;;;;5095994;28;20034;-77
2021/04/19 06:56:50;;;;;;;19.13;8.38;;;9.10;79.50;;;;;;5095289;28;20028;-77
2021/04/19 06:59:18;;;;;;;16.58;7.80;;;9.00;79.70;;;;;;5077536;28;20453;-77
2021/04/19 07:01:48;;;;;;;17.13;8.57;;;9.10;79.80;;;;;;5076791;28;20024;-78
2021/04/19 07:04:25;;;;;;;16.48;7.65;;;9.00;80.10;;;;;;5095294;28;20024;-79
2021/04/19 07:06:51;;;;;;;16.83;7.63;;;9.10;80.30;;;;;;5094506;28;20031;-78
2021/04/19 07:09:21;;;;;;;16.33;7.72;;;9.10;80.00;;;;;;5077183;28;20160;-76
2021/04/19 07:11:54;;;;;;;14.40;7.80;;;9.20;80.20;;;;;;5094682;28;20063;-77
2021/04/19 07:14:21;;;;;;;17.80;8.75;;;9.20;80.10;;;;;;5076974;28;20020;-76
2021/04/19 07:16:48;;;;;;;15.18;8.20;;;9.20;80.20;;;;;;5076326;28;20035;-76
2021/04/19 07:19:14;;;;;;;15.10;7.60;;;9.30;80.30;;;;;;5076839;28;20169;-77
2021/04/19 07:21:40;;;;;;;14.75;8.00;;;9.30;80.00;;;;;;5094382;28;20103;-76
2021/04/19 07:24:06;;;;;;;15.15;7.40;;;9.30;80.30;;;;;;5094726;28;20031;-75
2021/04/19 07:26:32;;;;;;;15.20;7.90;;;9.30;80.20;;;;;;5094810;28;20055;-76
2021/04/19 07:29:00;;;;;;;13.20;8.23;;;9.30;80.30;;;;;;5094629;28;20461;-77
2021/04/19 07:31:25;;;;;;;16.45;8.45;;;9.30;80.20;;;;;;5076066;28;20452;-77
2021/04/19 07:33:51;;;;;;;14.85;7.88;;;9.20;80.40;;;;;;5094753;28;20109;-79
2021/04/19 07:36:27;;;;;;;16.90;8.32;;;9.30;80.80;;;;;;5094457;28;20749;-77
2021/04/19 07:38:54;;;;;;;15.65;8.30;;;9.20;80.70;;;;;;5076263;28;20028;-79
2021/04/19 07:41:20;;;;;;;17.77;8.23;;;9.20;80.70;;;;;;5094229;28;20020;-78
2021/04/19 07:43:47;;;;;;;19.02;8.40;;;9.20;80.80;;;;;;5075874;28;20024;-78
2021/04/19 07:46:18;;;;;;;18.48;8.77;;;9.20;81.20;;;;;;5076551;28;20024;-78
2021/04/19 07:48:49;;;;;;;14.23;8.07;;;9.20;81.40;;;;;;5076562;28;20077;-78
2021/04/19 07:51:37;;;;;;;16.40;8.18;;;9.20;81.60;;;;;;5079613;28;20040;-77
2021/04/19 07:54:22;;;;;;;18.63;8.20;;;9.30;81.60;;;;;;5093309;28;20028;-79
2021/04/19 07:56:53;;;;;;;19.35;8.60;;;9.30;81.60;;;;;;5093375;28;20039;-79
2021/04/19 07:59:31;;;;;;;20.15;9.43;;;9.30;81.20;;;;;;5093572;28;20098;-77
2021/04/19 08:02:09;;;;;;;17.83;8.88;;;9.20;81.20;;;;;;5093002;28;20042;-77
2021/04/19 08:04:48;;;;;;;14.43;8.07;;;9.20;81.90;;;;;;5085976;28;20020;-77
2021/04/19 08:07:21;;;;;;;16.77;8.70;;;9.20;81.60;;;;;;5092023;28;20028;-78
2021/04/19 08:10:04;;;;;;;18.20;8.40;;;9.20;81.70;;;;;;5070960;28;20071;-77
2021/04/19 08:12:41;;;;;;;13.80;8.07;;;9.10;82.10;;;;;;5093537;28;20031;-78
2021/04/19 08:15:10;;;;;;;17.38;8.55;;;9.20;81.90;;;;;;5091670;28;20032;-76
2021/04/19 08:17:36;;;;;;;15.73;8.25;;;9.20;81.70;;;;;;5090429;28;20032;-77
2021/04/19 08:20:11;;;;;;;16.25;8.05;;;9.20;81.60;;;;;;5090200;28;20423;-78
2021/04/19 08:22:38;;;;;;;14.73;7.97;;;9.20;81.70;;;;;;5089947;28;20107;-77
2021/04/19 08:25:13;;;;;;;17.05;8.40;;;9.20;81.90;;;;;;5091017;28;20028;-78
2021/04/19 08:27:41;;;;;;;16.48;8.50;;;9.20;81.80;;;;;;5091623;28;20024;-79
2021/04/19 08:30:09;;;;;;;17.88;8.50;;;9.20;82.00;;;;;;5091444;28;20027;-76
2021/04/19 08:32:36;;;;;;;17.50;9.02;;;9.10;82.80;;;;;;5092932;28;20028;-78
2021/04/19 08:35:04;;;;;;;16.98;9.15;;;9.20;83.40;;;;;;5089812;28;20082;-77
2021/04/19 08:37:30;;;;;;;16.52;8.05;;;9.20;83.50;;;;;;5093163;28;20043;-76
2021/04/19 08:39:57;;;;;;;16.67;8.05;;;9.20;83.60;;;;;;5091427;28;20024;-76
2021/04/19 08:42:23;;;;;;;16.40;8.23;;;9.20;83.60;;;;;;5091726;28;20036;-76
2021/04/19 08:44:57;;;;;;;12.35;7.38;;;9.10;84.20;;;;;;5091340;28;20113;-76
2021/04/19 08:47:27;;;;;;;13.65;8.35;;;9.10;84.50;;;;;;5090602;28;20024;-75
2021/04/19 08:49:58;;;;;;;16.10;8.00;;;9.20;84.70;;;;;;5087861;28;20059;-77
2021/04/19 08:52:25;;;;;;;16.10;7.97;;;9.20;84.60;;;;;;5107047;28;20043;-77
2021/04/19 08:54:51;;;;;;;14.10;7.75;;;9.20;84.30;;;;;;5111408;28;20032;-76
2021/04/19 08:57:17;;;;;;;14.50;7.57;;;9.30;83.60;;;;;;5094225;28;20544;-77
2021/04/19 08:59:44;;;;;;;12.60;7.80;;;9.30;84.00;;;;;;5094018;28;20062;-77
2021/04/19 09:02:14;;;;;;;14.02;7.20;;;9.30;84.10;;;;;;5094085;28;20080;-77
2021/04/19 09:04:40;;;;;;;13.88;7.28;;;9.40;83.40;;;;;;5094576;28;20556;-77
2021/04/19 09:07:06;;;;;;;15.63;7.50;;;9.50;83.40;;;;;;5093987;28;20357;-76
2021/04/19 09:09:32;;;;;;;15.30;7.38;;;9.50;82.70;;;;;;5112310;28;20058;-76
2021/04/19 09:11:59;;;;;;;16.25;7.85;;;9.50;82.70;;;;;;5094079;28;20055;-78
2021/04/19 09:14:36;;;;;;;15.00;8.13;;;9.60;82.00;;;;;;5094157;28;20034;-76
2021/04/19 09:17:03;;;;;;;16.30;7.70;;;9.60;82.20;;;;;;5094133;28;20092;-79
2021/04/19 09:19:30;;;;;;;11.90;6.53;;;9.70;81.90;;;;;;5090708;28;20021;-80
2021/04/19 09:22:10;;;;;;;12.75;6.78;;;9.60;80.70;;;;;;5087527;28;20028;-78
2021/04/19 09:25:05;;;;;;;14.02;7.20;;;9.70;80.40;;;;;;5092033;28;20042;-79
2021/04/19 09:27:47;;;;;;;11.27;6.63;;;9.60;79.90;;;;;;5089683;28;20533;-80
2021/04/19 09:30:32;;;;;;;14.48;6.78;;;9.70;80.00;;;;;;5110957;28;20016;-80
2021/04/19 09:33:07;;;;;;;17.23;7.38;;;9.80;79.90;;;;;;5076830;28;20027;-80
2021/04/19 09:35:42;;;;;;;14.25;6.63;;;9.80;79.10;;;;;;5094372;28;20036;-79
2021/04/19 09:38:10;;;;;;;10.73;6.88;;;9.90;79.20;;;;;;5093337;28;20145;-80
2021/04/19 09:40:45;;;;;;;12.05;6.93;;;10.10;78.70;;;;;;5094975;28;20020;-78
2021/04/19 09:43:10;;;;;;;14.57;7.30;;;10.20;77.80;;;;;;5107236;28;20178;-79
2021/04/19 09:45:45;;;;;;;13.75;6.25;;;10.30;77.20;;;;;;5094227;28;20457;-80
2021/04/19 09:48:26;;;;;;;13.80;6.68;;;10.40;76.70;;;;;;5093526;28;20031;-79
2021/04/19 09:50:53;;;;;;;13.60;7.03;;;10.50;76.00;;;;;;5088669;28;20044;-79
2021/04/19 09:53:19;;;;;;;13.52;6.78;;;10.60;74.80;;;;;;5093315;28;20114;-77
2021/04/19 09:55:45;;;;;;;14.43;7.20;;;10.70;74.50;;;;;;5109582;28;20111;-80
2021/04/19 09:58:11;;;;;;;15.52;7.03;;;10.70;73.80;;;;;;5093361;28;20031;-78
2021/04/19 10:00:37;;;;;;;13.23;6.63;;;10.80;74.40;;;;;;5092652;28;20080;-79
2021/04/19 10:03:03;;;;;;;13.25;7.10;;;10.90;74.30;;;;;;5094025;28;20023;-78
2021/04/19 10:05:30;;;;;;;13.85;7.05;;;10.90;74.20;;;;;;5113045;28;20016;-78
2021/04/19 10:08:00;;;;;;;12.32;7.50;;;10.90;73.80;;;;;;5111295;28;20111;-78
2021/04/19 10:10:25;;;;;;;14.02;6.70;;;10.90;73.80;;;;;;5094279;28;20028;-77
2021/04/19 10:12:51;;;;;;;13.88;7.07;;;11.00;74.50;;;;;;5093645;28;20474;-80
2021/04/19 10:15:20;;;;;;;12.07;6.97;;;11.10;73.80;;;;;;5112837;28;20019;-79
2021/04/19 10:17:45;;;;;;;13.52;7.15;;;11.20;74.40;;;;;;5112485;28;20024;-77
2021/04/19 10:20:26;;;;;;;15.93;7.43;;;11.40;74.20;;;;;;5094000;28;20281;-77
2021/04/19 10:23:11;;;;;;;13.75;6.72;;;11.40;72.90;;;;;;5093807;28;20059;-77
2021/04/19 10:25:49;;;;;;;15.35;7.32;;;11.30;72.80;;;;;;5088849;28;20027;-77
2021/04/19 10:28:36;;;;;;;12.23;7.13;;;11.30;73.00;;;;;;5094758;28;20031;-77
2021/04/19 10:31:08;;;;;;;12.05;6.88;;;11.30;73.70;;;;;;5093441;28;20028;-79
2021/04/19 10:33:34;;;;;;;14.05;7.28;;;11.30;72.50;;;;;;5093700;28;20015;-79
2021/04/19 10:36:20;;;;;;;14.82;8.23;;;11.40;72.00;;;;;;5093051;28;20034;-78
2021/04/19 10:38:47;;;;;;;15.45;7.50;;;11.40;73.70;;;;;;5093854;28;20020;-77
2021/04/19 10:41:15;;;;;;;15.95;8.27;;;11.40;73.70;;;;;;5093699;28;20368;-76
2021/04/19 10:43:42;;;;;;;16.05;8.93;;;11.60;73.10;;;;;;5094507;28;20064;-76
2021/04/19 10:46:23;;;;;;;14.55;8.10;;;11.80;72.70;;;;;;5097225;28;20129;-77
2021/04/19 10:48:49;;;;;;;16.35;8.85;;;11.90;71.00;;;;;;5097056;28;20490;-78
2021/04/19 10:51:18;;;;;;;17.52;8.75;;;12.10;71.10;;;;;;5115003;28;20081;-78
2021/04/19 10:53:45;;;;;;;14.30;8.05;;;12.20;70.10;;;;;;5115684;28;20030;-78
2021/04/19 10:56:14;;;;;;;19.33;9.25;;;12.20;69.40;;;;;;5097117;28;20030;-77
2021/04/19 10:58:40;;;;;;;18.45;9.70;;;12.30;70.50;;;;;;5097618;28;20114;-77
2021/04/19 11:01:07;;;;;;;19.83;10.15;;;12.40;69.50;;;;;;5115041;28;20051;-77
2021/04/19 11:03:36;;;;;;;23.95;9.93;;;12.40;69.30;;;;;;5096965;28;20073;-78
2021/04/19 11:06:04;;;;;;;18.95;9.77;;;12.50;69.40;;;;;;5096972;28;20024;-79
2021/04/19 11:08:55;;;;;;;21.48;9.77;;;12.50;69.30;;;;;;5097022;28;20016;-80
2021/04/19 11:11:22;;;;;;;21.38;8.95;;;12.40;68.60;;;;;;5097178;28;20035;-79
2021/04/19 11:13:47;;;;;;;19.10;9.98;;;12.50;69.40;;;;;;5096727;28;20035;-78
2021/04/19 11:16:23;;;;;;;16.45;8.85;;;12.50;68.50;;;;;;5113615;28;20166;-77
2021/04/19 11:18:50;;;;;;;21.92;10.15;;;12.40;68.80;;;;;;5092366;28;20076;-76
2021/04/19 11:21:34;;;;;;;20.27;9.40;;;12.50;68.30;;;;;;5115099;28;20023;-78
2021/04/19 11:24:06;;;;;;;16.38;8.63;;;12.50;67.60;;;;;;5114946;28;20024;-76
2021/04/19 11:26:33;;;;;;;17.13;8.95;;;12.50;68.00;;;;;;5096766;28;20089;-76
2021/04/19 11:28:59;;;;;;;18.98;9.15;;;12.50;67.40;;;;;;5096477;28;20016;-78
2021/04/19 11:31:25;;;;;;;18.73;8.48;;;12.60;67.40;;;;;;5115370;28;20023;-79
2021/04/19 11:34:12;;;;;;;18.70;9.10;;;12.60;66.60;;;;;;5096542;28;20522;-80
2021/04/19 11:36:40;;;;;;;16.40;8.75;;;12.60;65.70;;;;;;5114632;28;20460;-78
2021/04/19 11:39:18;;;;;;;17.73;8.80;;;12.60;65.10;;;;;;5096185;28;20341;-78
2021/04/19 11:41:45;;;;;;;17.10;8.43;;;12.60;65.50;;;;;;5096401;28;20030;-78
2021/04/19 11:44:11;;;;;;;20.38;9.27;;;12.60;65.30;;;;;;5096513;28;20055;-78
2021/04/19 11:46:45;;;;;;;17.58;8.70;;;12.60;65.20;;;;;;5096993;28;20051;-78
2021/04/19 11:49:16;;;;;;;18.48;8.65;;;12.70;64.80;;;;;;5096161;28;20023;-78
2021/04/19 11:51:42;;;;;;;16.40;8.10;;;12.60;64.00;;;;;;5114794;28;20036;-77
2021/04/19 11:54:08;;;;;;;20.45;9.10;;;12.70;64.50;;;;;;5095277;28;20015;-77
2021/04/19 11:56:34;;;;;;;19.05;8.40;;;12.70;63.80;;;;;;5113099;28;20035;-78
2021/04/19 11:59:00;;;;;;;14.02;7.75;;;12.70;64.60;;;;;;5113484;28;20081;-79
2021/04/19 12:01:26;;;;;;;12.85;7.47;;;12.70;64.30;;;;;;5114466;28;20019;-77
2021/04/19 12:03:52;;;;;;;16.33;8.02;;;12.60;63.20;;;;;;5096585;28;20368;-82
2021/04/19 12:06:20;;;;;;;17.42;8.55;;;12.60;63.40;;;;;;5096781;28;20027;-78
2021/04/19 12:08:46;;;;;;;15.52;8.10;;;12.50;63.60;;;;;;5096574;28;20020;-78
2021/04/19 12:11:16;;;;;;;15.23;8.63;;;12.50;64.20;;;;;;5095399;28;20284;-77
2021/04/19 12:13:42;;;;;;;17.25;8.02;;;12.50;64.10;;;;;;5096189;28;20024;-77
2021/04/19 12:16:08;;;;;;;13.93;8.23;;;12.40;63.70;;;;;;5095361;28;20035;-77
2021/04/19 12:18:34;;;;;;;15.25;7.80;;;12.40;64.20;;;;;;5095668;28;20081;-77
2021/04/19 12:21:03;;;;;;;16.02;7.97;;;12.40;64.40;;;;;;5113123;28;20107;-77
2021/04/19 12:23:29;;;;;;;16.13;7.85;;;12.30;64.50;;;;;;5113844;28;20027;-77
2021/04/19 12:25:56;;;;;;;16.98;8.27;;;12.30;64.50;;;;;;5095359;28;20079;-77
2021/04/19 12:28:23;;;;;;;19.27;9.02;;;12.30;65.00;;;;;;5095898;28;20292;-76
2021/04/19 12:30:53;;;;;;;16.35;8.25;;;12.20;64.50;;;;;;5113992;28;20149;-77
2021/04/19 12:33:20;;;;;;;19.55;9.13;;;12.10;65.00;;;;;;5113607;28;20048;-78
2021/04/19 12:35:46;;;;;;;19.42;8.90;;;12.10;65.00;;;;;;5095721;28;20126;-76
2021/04/19 12:38:12;;;;;;;20.92;9.65;;;12.20;65.10;;;;;;5094953;28;20164;-76
2021/04/19 12:40:39;;;;;;;16.20;8.35;;;12.20;64.20;;;;;;5095709;28;20106;-77
2021/04/19 12:43:05;;;;;;;15.38;8.43;;;12.30;64.70;;;;;;5095595;28;20027;-77
2021/04/19 12:45:32;;;;;;;17.08;8.75;;;12.40;64.70;;;;;;5113701;28;20153;-78
2021/04/19 12:48:01;;;;;;;15.60;7.35;;;12.40;64.80;;;;;;5113389;28;20027;-78
2021/04/19 12:50:28;;;;;;;15.15;7.55;;;12.50;64.50;;;;;;5095202;28;20141;-78
2021/04/19 12:52:56;;;;;;;16.98;8.30;;;12.60;64.60;;;;;;5095408;28;20490;-80
2021/04/19 12:55:22;;;;;;;14.82;7.50;;;12.70;63.80;;;;;;5095611;28;20066;-77